Time;durP1;ratioP1;P1;durP2;ratioP2;P2;SDS_P1;SDS_P2;PMS_P1;PMS_P2;Temp;Humidity;BMP_temperature;BMP_pressure;BME280_temperature;BME280_humidity;BME280_pressure;Samples;Min_cycle;Max_cycle;Signal;HPM_P1;HPM_P2
2023/09/06 00:00:11;;;;;;;8.70;4.75;;;20.80;99.90;;;;;;5051836;28;20230;-73
2023/09/06 00:02:37;;;;;;;9.07;4.90;;;;;;;;;;5051900;28;20229;-74
2023/09/06 00:05:03;;;;;;;8.65;4.57;;;20.80;99.90;;;;;;5050685;28;20201;-74
2023/09/06 00:07:29;;;;;;;8.23;4.55;;;;;;;;;;5051879;28;20170;-73
2023/09/06 00:09:55;;;;;;;6.07;4.47;;;;;;;;;;5051823;28;20212;-74
2023/09/06 00:12:21;;;;;;;8.48;4.80;;;;;;;;;;5051669;28;20165;-73
2023/09/06 00:14:47;;;;;;;7.18;4.50;;;20.30;99.90;;;;;;5051956;28;20227;-72
2023/09/06 00:17:13;;;;;;;8.18;5.10;;;;;;;;;;5052085;28;20166;-72
2023/09/06 00:19:38;;;;;;;7.93;5.20;;;20.10;99.90;;;;;;5052291;28;20828;-72
2023/09/06 00:22:04;;;;;;;7.03;4.72;;;;;;;;;;5050752;28;20169;-73
2023/09/06 00:24:31;;;;;;;6.93;4.85;;;20.30;99.90;;;;;;5051596;28;20180;-71
2023/09/06 00:26:58;;;;;;;7.15;4.80;;;;;;;;;;5051652;28;20652;-72
2023/09/06 00:29:24;;;;;;;6.95;4.75;;;20.30;99.90;;;;;;5051589;28;20274;-72
2023/09/06 00:31:50;;;;;;;8.75;5.13;;;;;;;;;;5051242;28;20557;-72
2023/09/06 00:34:16;;;;;;;8.07;5.40;;;;;;;;;;5050924;28;20173;-72
2023/09/06 00:36:42;;;;;;;8.63;5.45;;;20.10;99.90;;;;;;5041903;28;20296;-73
2023/09/06 00:39:09;;;;;;;9.80;5.35;;;;;;;;;;5045903;28;20326;-74
2023/09/06 00:41:40;;;;;;;10.50;5.35;;;20.20;99.90;;;;;;5051278;28;20170;-73
2023/09/06 00:44:05;;;;;;;9.25;5.38;;;20.40;99.90;;;;;;5050774;28;20228;-73
2023/09/06 00:46:32;;;;;;;7.35;5.13;;;20.40;99.90;;;;;;5051086;28;20519;-73
2023/09/06 00:48:58;;;;;;;8.48;5.28;;;20.50;99.90;;;;;;5049783;28;20674;-73
2023/09/06 00:51:25;;;;;;;11.13;5.65;;;;;;;;;;5051217;28;20196;-74
2023/09/06 00:53:51;;;;;;;9.20;5.13;;;20.20;99.90;;;;;;5051088;28;20173;-74
2023/09/06 00:56:17;;;;;;;9.15;5.30;;;20.10;99.90;;;;;;5051239;28;20196;-73
2023/09/06 00:58:44;;;;;;;8.73;5.05;;;19.90;99.90;;;;;;5051130;28;20664;-73
2023/09/06 01:01:11;;;;;;;9.68;5.03;;;;;;;;;;5050871;28;20660;-73
2023/09/06 01:03:40;;;;;;;9.68;5.22;;;;;;;;;;5050897;28;20179;-73
2023/09/06 01:06:20;;;;;;;7.75;4.82;;;19.70;99.90;;;;;;5050884;28;20173;-73
2023/09/06 01:08:55;;;;;;;7.63;5.25;;;19.80;99.90;;;;;;5049700;28;20208;-72
2023/09/06 01:11:22;;;;;;;10.50;4.80;;;19.70;99.90;;;;;;5050817;28;20226;-73
2023/09/06 01:13:49;;;;;;;8.43;5.05;;;19.70;99.90;;;;;;5050988;28;20196;-73
2023/09/06 01:16:38;;;;;;;6.88;4.75;;;19.50;99.90;;;;;;5041064;28;20185;-73
2023/09/06 01:19:05;;;;;;;5.57;4.28;;;19.50;99.90;;;;;;5030690;28;20185;-72
2023/09/06 01:21:47;;;;;;;6.88;4.70;;;19.60;99.90;;;;;;5041403;28;20184;-73
2023/09/06 01:24:15;;;;;;;9.55;4.47;;;19.50;99.90;;;;;;5040639;28;20186;-73
2023/09/06 01:26:41;;;;;;;7.75;4.45;;;19.40;99.90;;;;;;5031099;28;20193;-73
2023/09/06 01:29:07;;;;;;;8.50;4.53;;;19.40;99.90;;;;;;5031391;28;20202;-72
2023/09/06 01:31:33;;;;;;;7.43;4.45;;;19.30;99.90;;;;;;5034545;28;20587;-72
2023/09/06 01:33:58;;;;;;;7.00;5.35;;;19.40;99.90;;;;;;5044937;28;20693;-73
2023/09/06 01:36:24;;;;;;;7.03;4.90;;;19.50;99.90;;;;;;5050410;28;20628;-72
2023/09/06 01:38:53;;;;;;;6.50;4.80;;;;;;;;;;5050654;28;20173;-72
2023/09/06 01:41:19;;;;;;;8.50;5.38;;;19.40;99.90;;;;;;5050429;28;20165;-72
2023/09/06 01:43:45;;;;;;;7.68;4.70;;;;;;;;;;5050342;28;20228;-72
2023/09/06 01:46:10;;;;;;;11.40;5.25;;;19.40;99.90;;;;;;5050591;28;20255;-72
2023/09/06 01:48:39;;;;;;;7.18;4.97;;;;;;;;;;5054458;28;20283;-71
2023/09/06 01:51:07;;;;;;;7.57;5.10;;;19.00;99.90;;;;;;5054782;28;20184;-71
2023/09/06 01:53:33;;;;;;;8.75;4.93;;;;;;;;;;5054672;28;20180;-73
2023/09/06 01:56:01;;;;;;;9.20;5.50;;;;;;;;;;5054417;28;20504;-73
2023/09/06 01:58:32;;;;;;;10.00;5.05;;;;;;;;;;5054364;28;20169;-72
2023/09/06 02:00:59;;;;;;;7.25;5.30;;;19.30;99.90;;;;;;5054249;28;20255;-72
2023/09/06 02:03:27;;;;;;;7.22;5.05;;;19.40;99.90;;;;;;5054347;28;20184;-73
2023/09/06 02:05:53;;;;;;;8.80;5.63;;;;;;;;;;5054169;28;20707;-72
2023/09/06 02:08:19;;;;;;;7.65;4.78;;;;;;;;;;5054203;28;20287;-74
2023/09/06 02:10:45;;;;;;;9.18;5.18;;;19.20;99.90;;;;;;5054268;28;20165;-73
2023/09/06 02:13:11;;;;;;;8.75;5.18;;;19.10;99.90;;;;;;5053927;28;20264;-73
2023/09/06 02:15:38;;;;;;;9.05;5.13;;;;;;;;;;5054017;28;20177;-73
2023/09/06 02:18:04;;;;;;;9.43;5.50;;;19.20;99.90;;;;;;5053900;28;20697;-73
2023/09/06 02:20:30;;;;;;;5.85;4.65;;;18.90;99.90;;;;;;5054062;28;20189;-73
2023/09/06 02:22:56;;;;;;;6.70;4.72;;;19.10;99.90;;;;;;5054020;28;20505;-72
2023/09/06 02:25:30;;;;;;;7.90;5.00;;;18.90;99.90;;;;;;5053699;28;20207;-73
2023/09/06 02:27:56;;;;;;;7.70;4.93;;;18.90;99.90;;;;;;5053807;28;20181;-73
2023/09/06 02:30:22;;;;;;;6.45;4.60;;;;;;;;;;5053566;28;20362;-72
2023/09/06 02:32:49;;;;;;;7.13;5.30;;;18.80;99.90;;;;;;5053802;28;20176;-74
2023/09/06 02:35:15;;;;;;;8.60;5.97;;;;;;;;;;5053702;28;20546;-72
2023/09/06 02:37:41;;;;;;;10.60;5.93;;;;;;;;;;5036109;28;20637;-72
2023/09/06 02:40:12;;;;;;;9.35;5.18;;;18.70;99.90;;;;;;5036254;28;20169;-72
2023/09/06 02:42:39;;;;;;;10.10;5.68;;;19.10;99.90;;;;;;5034393;28;20225;-72
2023/09/06 02:45:09;;;;;;;7.30;5.43;;;19.00;99.90;;;;;;5046101;28;20243;-72
2023/09/06 02:47:39;;;;;;;10.73;5.10;;;19.20;99.90;;;;;;5040619;28;20200;-72
2023/09/06 02:50:06;;;;;;;7.90;4.88;;;19.00;99.90;;;;;;5052051;28;20208;-72
2023/09/06 02:52:35;;;;;;;8.20;5.10;;;;;;;;;;5051834;28;20223;-72
2023/09/06 02:55:06;;;;;;;8.93;5.22;;;19.20;99.90;;;;;;5050344;28;20195;-73
2023/09/06 02:57:32;;;;;;;7.13;5.05;;;19.10;99.90;;;;;;5038624;28;20242;-73
2023/09/06 02:59:57;;;;;;;9.18;5.68;;;19.10;99.90;;;;;;5042093;28;20644;-73
2023/09/06 03:02:23;;;;;;;8.40;5.03;;;;;;;;;;5046936;28;20174;-73
2023/09/06 03:04:55;;;;;;;7.05;5.20;;;19.00;99.90;;;;;;5032368;28;20189;-73
2023/09/06 03:07:21;;;;;;;9.07;5.25;;;19.00;99.90;;;;;;5032402;28;20182;-72
2023/09/06 03:09:49;;;;;;;11.57;5.80;;;18.90;99.90;;;;;;5032366;28;20275;-72
2023/09/06 03:12:16;;;;;;;8.00;5.60;;;18.90;99.90;;;;;;5051568;28;20268;-73
2023/09/06 03:14:44;;;;;;;8.60;6.18;;;18.90;99.90;;;;;;5051733;28;20586;-74
2023/09/06 03:17:10;;;;;;;8.57;5.80;;;18.90;99.90;;;;;;5036902;28;20185;-73
2023/09/06 03:19:45;;;;;;;11.15;5.97;;;19.00;99.90;;;;;;5049315;28;20169;-75
2023/09/06 03:22:15;;;;;;;10.20;6.15;;;18.90;99.90;;;;;;5051678;28;20187;-74
2023/09/06 03:24:41;;;;;;;6.85;5.38;;;18.90;99.90;;;;;;5051776;28;20190;-74
2023/09/06 03:27:08;;;;;;;8.25;5.85;;;18.90;99.90;;;;;;5038733;28;20181;-73
2023/09/06 03:29:38;;;;;;;9.63;5.40;;;18.90;99.90;;;;;;5047270;28;20691;-73
2023/09/06 03:32:07;;;;;;;9.75;6.30;;;18.80;99.90;;;;;;5038790;28;20177;-73
2023/09/06 03:34:34;;;;;;;10.63;6.13;;;18.80;99.90;;;;;;5051993;28;20199;-73
2023/09/06 03:37:00;;;;;;;9.60;5.88;;;18.80;99.90;;;;;;5051473;28;20173;-73
2023/09/06 03:39:28;;;;;;;10.43;6.50;;;18.70;99.90;;;;;;5051673;28;20179;-73
2023/09/06 03:44:38;;;;;;;9.68;5.85;;;18.70;99.90;;;;;;5068228;28;21135;-73
2023/09/06 03:47:06;;;;;;;10.43;6.38;;;18.70;99.90;;;;;;5068131;28;20258;-73
2023/09/06 03:49:35;;;;;;;11.90;6.22;;;18.70;99.90;;;;;;5068065;28;20173;-72
2023/09/06 03:52:05;;;;;;;14.48;6.43;;;18.70;99.90;;;;;;5068306;28;20164;-73
2023/09/06 03:54:34;;;;;;;7.85;5.88;;;18.70;99.90;;;;;;5068196;28;20169;-73
2023/09/06 03:57:07;;;;;;;7.40;5.50;;;18.70;99.90;;;;;;5068092;28;20183;-74
2023/09/06 03:59:35;;;;;;;7.70;5.53;;;18.70;99.90;;;;;;5068123;28;20191;-73
2023/09/06 04:02:07;;;;;;;6.97;5.63;;;18.70;99.90;;;;;;5067638;28;20267;-73
2023/09/06 04:04:34;;;;;;;9.77;5.95;;;18.70;99.90;;;;;;5068043;28;20219;-74
2023/09/06 04:07:00;;;;;;;11.10;6.07;;;18.70;99.90;;;;;;5068020;28;20177;-73
2023/09/06 04:09:30;;;;;;;8.73;5.40;;;18.60;99.90;;;;;;5067903;28;20237;-73
2023/09/06 04:11:59;;;;;;;8.43;5.50;;;18.70;99.90;;;;;;5067788;28;20179;-73
2023/09/06 04:14:24;;;;;;;12.13;6.28;;;18.70;99.90;;;;;;5067802;28;20330;-73
2023/09/06 04:16:50;;;;;;;6.72;5.57;;;18.70;99.90;;;;;;5067823;28;20655;-74
2023/09/06 04:19:16;;;;;;;9.93;6.07;;;18.70;99.90;;;;;;5067672;28;20164;-73
2023/09/06 04:21:41;;;;;;;9.40;5.90;;;18.70;99.90;;;;;;5067777;28;20177;-73
2023/09/06 04:24:07;;;;;;;9.38;6.07;;;18.60;99.90;;;;;;5067589;28;20212;-73
2023/09/06 04:26:34;;;;;;;10.15;5.45;;;18.60;99.90;;;;;;5067509;28;20255;-73
2023/09/06 04:29:03;;;;;;;12.98;5.78;;;18.70;99.90;;;;;;5067677;28;20164;-73
2023/09/06 04:31:30;;;;;;;10.30;6.25;;;18.70;99.90;;;;;;5067168;28;20176;-73
2023/09/06 04:33:58;;;;;;;8.98;5.95;;;18.60;99.90;;;;;;5067254;28;20176;-71
2023/09/06 04:36:23;;;;;;;9.60;5.75;;;18.60;99.90;;;;;;5067378;28;20177;-73
2023/09/06 04:38:49;;;;;;;12.55;5.80;;;18.60;99.90;;;;;;5067254;28;20286;-72
2023/09/06 04:41:15;;;;;;;13.18;6.18;;;18.60;99.90;;;;;;5067231;28;20173;-73
2023/09/06 04:43:40;;;;;;;9.88;6.38;;;18.60;99.90;;;;;;5066725;28;20271;-74
2023/09/06 04:46:06;;;;;;;8.00;5.65;;;18.50;99.90;;;;;;5071591;28;20250;-74
2023/09/06 04:48:32;;;;;;;7.88;5.82;;;18.50;99.90;;;;;;5087047;28;20254;-73
2023/09/06 04:50:59;;;;;;;10.55;5.82;;;18.40;99.90;;;;;;5087347;28;20168;-75
2023/09/06 04:53:25;;;;;;;8.57;6.05;;;18.50;99.90;;;;;;5081293;28;20195;-74
2023/09/06 04:55:52;;;;;;;9.70;5.85;;;18.40;99.90;;;;;;5055938;28;20169;-73
2023/09/06 04:58:18;;;;;;;9.50;5.43;;;18.70;99.90;;;;;;5068008;28;20937;-73
2023/09/06 05:00:47;;;;;;;8.32;5.80;;;18.40;99.90;;;;;;5053230;28;20227;-73
2023/09/06 05:03:17;;;;;;;8.77;6.00;;;18.40;99.90;;;;;;5068575;28;20298;-73
2023/09/06 05:05:43;;;;;;;7.68;6.03;;;18.40;99.90;;;;;;5046559;28;20173;-73
2023/09/06 05:08:09;;;;;;;8.98;5.57;;;18.40;99.90;;;;;;5052170;28;20181;-73
2023/09/06 05:10:35;;;;;;;7.97;5.50;;;18.40;99.90;;;;;;5066595;28;20635;-73
2023/09/06 05:13:01;;;;;;;10.32;5.63;;;18.40;99.90;;;;;;5070643;28;20177;-73
2023/09/06 05:15:28;;;;;;;10.63;6.05;;;18.40;99.90;;;;;;5053225;28;20291;-71
2023/09/06 05:17:53;;;;;;;8.70;6.20;;;18.40;99.90;;;;;;5052994;28;20188;-73
2023/09/06 05:20:27;;;;;;;9.10;6.45;;;18.40;99.90;;;;;;5053174;28;20169;-74
2023/09/06 05:22:54;;;;;;;7.40;6.15;;;18.40;99.90;;;;;;5053241;28;20274;-72
2023/09/06 05:25:19;;;;;;;9.70;6.13;;;18.50;99.90;;;;;;5053177;28;20201;-71
2023/09/06 05:27:45;;;;;;;10.00;6.28;;;18.50;99.90;;;;;;5053144;28;20208;-72
2023/09/06 05:30:11;;;;;;;13.73;6.43;;;18.50;99.90;;;;;;5052703;28;20536;-72
2023/09/06 05:32:37;;;;;;;10.50;6.50;;;18.50;99.90;;;;;;5052855;28;20655;-72
2023/09/06 05:35:03;;;;;;;9.38;5.80;;;18.50;99.90;;;;;;5052870;28;20189;-72
2023/09/06 05:37:29;;;;;;;13.15;6.55;;;18.60;99.90;;;;;;5052839;28;20169;-72
2023/09/06 05:39:55;;;;;;;8.43;6.00;;;18.50;99.90;;;;;;5052797;28;20632;-72
2023/09/06 05:42:21;;;;;;;12.63;6.18;;;18.50;99.90;;;;;;5051141;28;20192;-71
2023/09/06 05:44:46;;;;;;;9.43;6.07;;;18.40;99.90;;;;;;5051387;28;20173;-72
2023/09/06 05:47:12;;;;;;;9.73;6.47;;;18.40;99.90;;;;;;5051230;28;20180;-71
2023/09/06 05:49:38;;;;;;;8.50;6.15;;;18.40;99.90;;;;;;5052555;28;20184;-72
2023/09/06 05:52:04;;;;;;;11.20;6.13;;;18.40;99.90;;;;;;5051315;28;20638;-72
2023/09/06 05:54:29;;;;;;;9.13;6.40;;;18.40;99.90;;;;;;5037990;28;20182;-72
2023/09/06 05:56:55;;;;;;;9.25;6.60;;;18.40;99.90;;;;;;5032377;28;20205;-72
2023/09/06 05:59:21;;;;;;;10.52;5.65;;;18.50;99.90;;;;;;5031239;28;20541;-73
2023/09/06 06:01:46;;;;;;;9.52;5.72;;;18.40;99.90;;;;;;5031267;28;20169;-72
2023/09/06 06:04:13;;;;;;;12.13;5.88;;;18.40;99.90;;;;;;5030878;28;20331;-72
2023/09/06 06:06:41;;;;;;;12.05;5.75;;;18.50;99.90;;;;;;5030076;28;20178;-72
2023/09/06 06:09:11;;;;;;;13.32;6.70;;;18.60;99.90;;;;;;5032364;28;20235;-72
2023/09/06 06:11:40;;;;;;;9.40;6.63;;;18.70;99.90;;;;;;5032395;28;20169;-73
2023/09/06 06:14:06;;;;;;;12.90;6.78;;;18.70;99.90;;;;;;5032205;28;20571;-73
2023/09/06 06:16:32;;;;;;;12.70;6.63;;;18.80;99.90;;;;;;5032118;28;20281;-73
2023/09/06 06:18:57;;;;;;;9.07;7.38;;;18.80;99.90;;;;;;5032105;28;20660;-74
2023/09/06 06:21:25;;;;;;;9.93;6.47;;;18.80;99.90;;;;;;5032125;28;20177;-73
2023/09/06 06:23:51;;;;;;;8.35;6.53;;;18.80;99.90;;;;;;5031905;28;20202;-73
2023/09/06 06:26:19;;;;;;;9.93;6.38;;;18.80;99.90;;;;;;5031908;28;20189;-73
2023/09/06 06:28:45;;;;;;;9.40;6.13;;;18.60;99.90;;;;;;5031918;28;20173;-72
2023/09/06 06:31:12;;;;;;;11.57;6.55;;;18.70;99.90;;;;;;5031912;28;20261;-73
2023/09/06 06:33:38;;;;;;;10.60;6.70;;;18.70;99.90;;;;;;5031880;28;20696;-74
2023/09/06 06:36:05;;;;;;;11.30;6.80;;;18.70;99.90;;;;;;5031817;28;20177;-74
2023/09/06 06:38:31;;;;;;;10.48;6.93;;;19.10;99.90;;;;;;5053885;28;20181;-74
2023/09/06 06:40:57;;;;;;;9.88;6.40;;;18.80;99.90;;;;;;5051061;28;20174;-74
2023/09/06 06:43:22;;;;;;;10.70;6.75;;;18.80;99.90;;;;;;5069047;28;20228;-73
2023/09/06 06:45:56;;;;;;;12.82;6.93;;;18.70;99.90;;;;;;5071464;28;20647;-73
2023/09/06 06:48:22;;;;;;;10.27;6.75;;;18.90;99.90;;;;;;5070155;28;20168;-74
2023/09/06 06:50:48;;;;;;;9.55;6.50;;;19.00;99.90;;;;;;5064752;28;20178;-73
2023/09/06 06:53:14;;;;;;;8.48;6.32;;;19.10;99.90;;;;;;5048568;28;20170;-73
2023/09/06 06:55:40;;;;;;;10.15;6.60;;;19.20;99.90;;;;;;5058761;28;20183;-74
2023/09/06 06:58:07;;;;;;;11.43;6.50;;;19.30;99.90;;;;;;5058557;28;20288;-73
2023/09/06 07:00:34;;;;;;;8.43;6.00;;;19.40;99.90;;;;;;5050659;28;20177;-73
2023/09/06 07:03:00;;;;;;;9.25;7.07;;;19.30;99.90;;;;;;5050947;28;20351;-74
2023/09/06 07:05:26;;;;;;;12.27;7.10;;;19.60;99.90;;;;;;5051140;28;20248;-75
2023/09/06 07:07:53;;;;;;;10.50;7.13;;;19.60;99.90;;;;;;5051131;28;20180;-73
2023/09/06 07:10:21;;;;;;;11.38;7.82;;;;;;;;;;5051140;28;20180;-74
2023/09/06 07:12:48;;;;;;;8.43;7.18;;;;;;;;;;5051488;28;20515;-74
2023/09/06 07:15:14;;;;;;;9.85;7.22;;;19.80;99.90;;;;;;5070665;28;20168;-74
2023/09/06 07:17:40;;;;;;;10.77;7.32;;;;;;;;;;5070558;28;20164;-74
2023/09/06 07:20:07;;;;;;;16.48;7.78;;;;;;;;;;5070967;28;20164;-74
2023/09/06 07:22:33;;;;;;;11.55;7.97;;;;;;;;;;5068997;28;20195;-75
2023/09/06 07:24:59;;;;;;;14.38;8.40;;;;;;;;;;5070957;28;20238;-74
2023/09/06 07:27:26;;;;;;;13.77;8.30;;;19.90;99.90;;;;;;5067285;28;20178;-74
2023/09/06 07:29:51;;;;;;;14.05;8.57;;;20.00;99.90;;;;;;5050474;28;20184;-74
2023/09/06 07:32:17;;;;;;;15.60;9.05;;;;;;;;;;5049227;28;20174;-75
2023/09/06 07:34:44;;;;;;;13.07;8.70;;;20.40;99.90;;;;;;5061744;28;20173;-75
2023/09/06 07:37:10;;;;;;;22.80;9.38;;;;;;;;;;5050793;28;20177;-74
2023/09/06 07:39:37;;;;;;;15.80;8.90;;;;;;;;;;5050380;28;20703;-72
2023/09/06 07:42:04;;;;;;;16.58;8.77;;;;;;;;;;5049112;28;20256;-73
2023/09/06 07:44:32;;;;;;;18.90;10.05;;;21.10;99.90;;;;;;5050240;28;20229;-74
2023/09/06 07:46:59;;;;;;;16.10;9.70;;;;;;;;;;5050321;28;20165;-73
2023/09/06 07:49:26;;;;;;;18.63;9.73;;;;;;;;;;5051340;28;20752;-73
2023/09/06 07:51:52;;;;;;;14.02;9.70;;;21.00;99.90;;;;;;5051376;28;20188;-72
2023/09/06 07:54:18;;;;;;;16.48;9.68;;;20.90;99.90;;;;;;5037375;28;20174;-73
2023/09/06 07:56:47;;;;;;;14.70;9.75;;;;;;;;;;5047648;28;20173;-72
2023/09/06 07:59:13;;;;;;;18.23;10.43;;;21.50;99.90;;;;;;5054497;28;20628;-72
2023/09/06 08:01:38;;;;;;;18.33;10.60;;;21.40;99.90;;;;;;5062516;28;20238;-73
2023/09/06 08:04:04;;;;;;;19.88;10.35;;;;;;;;;;5050901;28;20212;-73
2023/09/06 08:06:30;;;;;;;17.23;9.93;;;;;;;;;;5054906;28;20177;-72
2023/09/06 08:08:58;;;;;;;14.45;9.75;;;21.70;99.90;;;;;;5048613;28;20277;-72
2023/09/06 08:11:23;;;;;;;15.65;10.80;;;21.70;99.90;;;;;;5050200;28;20546;-72
2023/09/06 08:13:49;;;;;;;18.65;10.13;;;22.50;99.90;;;;;;5050454;28;20252;-73
2023/09/06 08:16:15;;;;;;;19.05;10.52;;;22.80;99.90;;;;;;5058701;28;20547;-72
2023/09/06 08:18:41;;;;;;;20.92;11.20;;;23.60;99.90;;;;;;5065909;28;20168;-72
2023/09/06 08:21:07;;;;;;;19.23;10.45;;;23.50;99.90;;;;;;5050001;28;20208;-72
2023/09/06 08:23:33;;;;;;;21.45;9.80;;;23.80;99.90;;;;;;5050120;28;20224;-73
2023/09/06 08:26:00;;;;;;;16.77;10.00;;;24.40;99.90;;;;;;5051586;28;20173;-72
2023/09/06 08:28:25;;;;;;;20.13;9.85;;;25.00;99.90;;;;;;5051600;28;20181;-73
2023/09/06 08:30:51;;;;;;;15.35;9.45;;;25.00;99.90;;;;;;5052721;28;20526;-73
2023/09/06 08:33:17;;;;;;;15.48;9.55;;;25.70;99.90;;;;;;5053336;28;20212;-73
2023/09/06 08:35:42;;;;;;;18.23;9.50;;;26.10;99.90;;;;;;5071016;28;20635;-73
2023/09/06 08:38:08;;;;;;;15.98;9.48;;;26.10;99.90;;;;;;5033820;28;20243;-73
2023/09/06 08:40:35;;;;;;;17.70;9.10;;;26.50;99.90;;;;;;5033733;28;20598;-73
2023/09/06 08:43:03;;;;;;;12.32;8.65;;;27.20;1.00;;;;;;5033559;28;20706;-72
2023/09/06 08:45:29;;;;;;;19.38;10.38;;;27.10;1.00;;;;;;5053758;28;20246;-73
2023/09/06 08:47:55;;;;;;;19.80;9.82;;;27.30;1.00;;;;;;5064100;28;20177;-74
2023/09/06 08:50:22;;;;;;;15.75;10.07;;;26.90;99.90;;;;;;5053593;28;20235;-74
2023/09/06 08:52:50;;;;;;;16.48;9.35;;;27.20;1.00;;;;;;5053283;28;20181;-73
2023/09/06 08:55:16;;;;;;;15.23;9.75;;;27.30;1.00;;;;;;5060985;28;20176;-73
2023/09/06 08:57:44;;;;;;;15.60;8.93;;;26.90;99.90;;;;;;5071789;28;20259;-74
2023/09/06 09:00:11;;;;;;;18.63;9.93;;;26.90;1.00;;;;;;5073076;28;20703;-73
2023/09/06 09:02:42;;;;;;;16.95;9.65;;;27.50;1.00;;;;;;5071574;28;20204;-73
2023/09/06 09:05:09;;;;;;;19.38;10.15;;;;;;;;;;5072793;28;20677;-73
2023/09/06 09:07:34;;;;;;;22.05;10.57;;;26.10;99.90;;;;;;5063367;28;20218;-73
2023/09/06 09:10:10;;;;;;;17.63;9.75;;;26.00;82.70;;;;;;5053611;28;20264;-72
2023/09/06 09:12:38;;;;;;;17.45;10.32;;;25.70;24.00;;;;;;5070731;28;20178;-74
2023/09/06 09:15:05;;;;;;;16.25;9.70;;;25.80;1.00;;;;;;5060732;28;20188;-73
2023/09/06 09:17:31;;;;;;;35.35;10.30;;;;;;;;;;5050945;28;20169;-73
2023/09/06 09:20:01;;;;;;;16.95;9.63;;;26.70;1.00;;;;;;5053033;28;20174;-74
2023/09/06 09:22:32;;;;;;;16.80;10.10;;;27.30;99.90;;;;;;5052661;28;20170;-74
2023/09/06 09:25:13;;;;;;;18.73;10.02;;;27.30;9.60;;;;;;5052504;28;20184;-73
2023/09/06 09:27:39;;;;;;;24.30;9.82;;;27.00;99.90;;;;;;5052754;28;20632;-73
2023/09/06 09:30:06;;;;;;;21.33;10.80;;;27.00;16.50;;;;;;5033780;28;20173;-73
2023/09/06 09:32:32;;;;;;;20.30;9.50;;;27.50;99.90;;;;;;5052660;28;20212;-72
2023/09/06 09:34:58;;;;;;;20.60;10.25;;;;;;;;;;5052763;28;20216;-72
2023/09/06 09:37:24;;;;;;;18.63;9.50;;;27.30;99.90;;;;;;5052606;28;20187;-72
2023/09/06 09:39:52;;;;;;;16.05;9.93;;;;;;;;;;5051729;28;20247;-72
2023/09/06 09:42:17;;;;;;;22.15;9.52;;;28.30;1.00;;;;;;5050543;28;20636;-73
2023/09/06 09:44:59;;;;;;;19.92;9.98;;;28.60;99.90;;;;;;5050546;28;20216;-73
2023/09/06 09:47:27;;;;;;;15.88;9.75;;;28.80;1.60;;;;;;5050678;28;20244;-73
2023/09/06 09:49:54;;;;;;;23.08;9.50;;;28.70;1.00;;;;;;5050650;28;20177;-73
2023/09/06 09:52:21;;;;;;;14.00;8.70;;;28.90;1.00;;;;;;5050435;28;20219;-73
2023/09/06 09:54:48;;;;;;;21.15;9.13;;;29.20;16.80;;;;;;5034560;28;20540;-74
2023/09/06 09:57:14;;;;;;;19.85;8.85;;;29.50;1.00;;;;;;5032444;28;20177;-73
2023/09/06 09:59:40;;;;;;;20.23;9.45;;;29.30;1.00;;;;;;5032341;28;20173;-74
2023/09/06 10:02:09;;;;;;;14.50;8.93;;;29.70;99.90;;;;;;5032407;28;20173;-73
2023/09/06 10:04:42;;;;;;;17.10;9.13;;;29.60;1.00;;;;;;5032642;28;20270;-74
2023/09/06 10:07:09;;;;;;;13.95;9.02;;;30.20;1.00;;;;;;5032443;28;20548;-74
2023/09/06 10:09:38;;;;;;;15.60;8.23;;;30.10;60.90;;;;;;5032333;28;20583;-74
2023/09/06 10:12:09;;;;;;;18.08;8.55;;;30.00;96.70;;;;;;5032178;28;20179;-74
2023/09/06 10:14:39;;;;;;;13.35;9.07;;;30.00;99.90;;;;;;5032244;28;20188;-74
2023/09/06 10:17:07;;;;;;;13.27;8.52;;;30.40;99.90;;;;;;5032214;28;20177;-73
2023/09/06 10:19:33;;;;;;;16.52;8.63;;;;;;;;;;5032203;28;20169;-74
2023/09/06 10:22:01;;;;;;;17.70;8.50;;;31.00;1.00;;;;;;5030712;28;20169;-74
2023/09/06 10:24:32;;;;;;;16.60;8.05;;;31.40;1.00;;;;;;5031904;28;20209;-74
2023/09/06 10:26:58;;;;;;;10.38;7.10;;;;;;;;;;5031929;28;20707;-74
2023/09/06 10:29:25;;;;;;;14.52;7.38;;;31.90;76.30;;;;;;5031977;28;20224;-74
2023/09/06 10:31:52;;;;;;;12.02;6.38;;;32.50;1.00;;;;;;5031861;28;20629;-74
2023/09/06 10:34:19;;;;;;;10.75;6.75;;;32.70;1.00;;;;;;5031791;28;20177;-73
2023/09/06 10:36:56;;;;;;;18.85;6.72;;;32.40;1.00;;;;;;5031804;28;20235;-73
2023/09/06 10:39:30;;;;;;;15.60;7.22;;;32.00;1.00;;;;;;5031700;28;20173;-73
2023/09/06 10:42:11;;;;;;;11.07;6.50;;;32.10;99.90;;;;;;5030315;28;20169;-73
2023/09/06 10:44:55;;;;;;;8.63;5.90;;;32.00;1.00;;;;;;5030286;28;20244;-73
2023/09/06 10:47:31;;;;;;;14.82;5.70;;;32.30;1.00;;;;;;5031551;28;20175;-73
2023/09/06 10:50:21;;;;;;;10.43;5.90;;;31.50;99.90;;;;;;5031391;28;20274;-73
2023/09/06 10:52:58;;;;;;;11.88;6.95;;;31.30;1.00;;;;;;5030924;28;20531;-73
2023/09/06 10:55:46;;;;;;;11.93;6.97;;;30.30;99.90;;;;;;5031527;28;20231;-72
2023/09/06 10:58:12;;;;;;;9.15;6.15;;;30.40;1.00;;;;;;5031271;28;20178;-73
2023/09/06 11:00:40;;;;;;;10.20;6.82;;;;;;;;;;5031502;28;20188;-73
2023/09/06 11:03:06;;;;;;;10.65;4.95;;;;;;;;;;5031351;28;20201;-74
2023/09/06 11:05:53;;;;;;;14.20;6.13;;;31.10;1.00;;;;;;5031253;28;20706;-74
2023/09/06 11:08:29;;;;;;;12.75;6.25;;;31.30;1.00;;;;;;5029973;28;20180;-74
2023/09/06 11:11:03;;;;;;;10.73;6.22;;;31.30;99.90;;;;;;5031236;28;20184;-74
2023/09/06 11:13:33;;;;;;;10.38;7.20;;;31.30;1.00;;;;;;5031061;28;20161;-74
2023/09/06 11:16:00;;;;;;;9.48;5.88;;;33.00;99.90;;;;;;5030969;28;20170;-74
2023/09/06 11:18:32;;;;;;;11.40;6.20;;;31.70;1.00;;;;;;5031077;28;20176;-73
2023/09/06 11:20:59;;;;;;;15.85;6.38;;;;;;;;;;5031010;28;20193;-74
2023/09/06 11:23:26;;;;;;;17.95;5.95;;;32.10;1.00;;;;;;5030659;28;20204;-74
2023/09/06 11:25:58;;;;;;;11.73;6.10;;;32.30;1.00;;;;;;5031128;28;20174;-74
2023/09/06 11:28:24;;;;;;;15.93;6.00;;;32.40;1.00;;;;;;5031019;28;20223;-74
2023/09/06 11:30:50;;;;;;;16.20;5.75;;;32.30;1.00;;;;;;5029541;28;20575;-74
2023/09/06 11:33:17;;;;;;;20.13;6.63;;;32.30;1.00;;;;;;5031027;28;20252;-74
2023/09/06 11:35:51;;;;;;;16.85;6.55;;;32.10;1.00;;;;;;5030806;28;20227;-74
2023/09/06 11:38:23;;;;;;;13.25;6.43;;;32.30;1.00;;;;;;5030854;28;20201;-74
2023/09/06 11:40:50;;;;;;;15.25;6.13;;;32.90;1.00;;;;;;5030703;28;20251;-74
2023/09/06 11:43:18;;;;;;;14.27;6.20;;;33.20;99.90;;;;;;5029037;28;20703;-74
2023/09/06 11:45:46;;;;;;;12.43;5.85;;;33.30;99.90;;;;;;5030478;28;20711;-74
2023/09/06 11:48:19;;;;;;;13.90;6.40;;;33.20;99.90;;;;;;5030666;28;20572;-74
2023/09/06 11:50:47;;;;;;;12.38;6.10;;;33.90;99.90;;;;;;5030912;28;20182;-74
2023/09/06 11:53:14;;;;;;;10.88;5.70;;;34.00;99.90;;;;;;5034426;28;20207;-74
2023/09/06 11:55:45;;;;;;;21.52;6.05;;;34.20;99.90;;;;;;5050155;28;20187;-74
2023/09/06 11:58:16;;;;;;;13.35;5.57;;;35.00;1.00;;;;;;5050436;28;20661;-74
2023/09/06 12:00:46;;;;;;;13.93;6.22;;;34.70;1.00;;;;;;5050514;28;20184;-74
2023/09/06 12:03:13;;;;;;;14.32;5.13;;;35.10;99.90;;;;;;5050364;28;20200;-74
2023/09/06 12:05:50;;;;;;;13.68;5.68;;;34.90;99.90;;;;;;5053237;28;20267;-74
2023/09/06 12:08:21;;;;;;;11.98;5.35;;;34.60;1.00;;;;;;5054310;28;20164;-74
2023/09/06 12:10:52;;;;;;;13.52;5.75;;;37.70;1.00;;;;;;5054375;28;20259;-75
2023/09/06 12:13:34;;;;;;;8.05;4.90;;;35.10;1.00;;;;;;5054349;28;20189;-74
2023/09/06 12:16:00;;;;;;;13.57;5.18;;;;;;;;;;5040333;28;20263;-74
2023/09/06 12:18:28;;;;;;;11.90;4.60;;;36.30;1.00;;;;;;5068734;28;20248;-75
2023/09/06 12:20:56;;;;;;;13.57;5.43;;;36.90;1.00;;;;;;5067863;28;20226;-74
2023/09/06 12:23:23;;;;;;;10.68;5.70;;;36.50;1.00;;;;;;5054013;28;20234;-75
2023/09/06 12:25:48;;;;;;;14.50;5.53;;;36.00;1.00;;;;;;5056817;28;20699;-74
2023/09/06 12:28:14;;;;;;;10.93;5.30;;;36.30;99.90;;;;;;5065468;28;20259;-74
2023/09/06 12:30:39;;;;;;;12.70;5.68;;;36.00;99.90;;;;;;5073924;28;20174;-75
2023/09/06 12:33:05;;;;;;;15.05;5.45;;;35.90;99.90;;;;;;5072568;28;20186;-73
2023/09/06 12:35:38;;;;;;;16.05;6.57;;;36.20;99.90;;;;;;5071921;28;20610;-74
2023/09/06 12:38:07;;;;;;;10.00;5.75;;;36.00;99.90;;;;;;5053691;28;20177;-74
2023/09/06 12:40:33;;;;;;;11.75;5.25;;;36.00;99.90;;;;;;5054622;28;20176;-74
2023/09/06 12:42:59;;;;;;;13.07;5.90;;;37.00;99.90;;;;;;5053603;28;20254;-74
2023/09/06 12:45:28;;;;;;;14.23;5.85;;;36.30;99.90;;;;;;5054648;28;20165;-73
2023/09/06 12:47:55;;;;;;;11.63;5.30;;;36.10;99.90;;;;;;5073812;28;20168;-73
2023/09/06 12:50:22;;;;;;;18.27;5.85;;;;;;;;;;5058203;28;20229;-73
2023/09/06 12:52:48;;;;;;;12.00;4.80;;;35.90;79.90;;;;;;5052244;28;20576;-74
2023/09/06 12:55:14;;;;;;;8.90;5.70;;;36.50;97.60;;;;;;5050337;28;20173;-74
2023/09/06 12:57:40;;;;;;;13.02;5.53;;;36.80;99.70;;;;;;5064119;28;20172;-74
2023/09/06 13:00:07;;;;;;;8.98;5.45;;;36.10;32.30;;;;;;5073294;28;20784;-73
2023/09/06 13:02:33;;;;;;;12.60;5.63;;;36.50;38.40;;;;;;5073121;28;20164;-73